DAL447 KATL-KIAD
Flight info
| Callsign | DAL447 |
|---|---|
| Flight time | 1h 25m |
| Altitude | 37000 |
| Route | JACCC2 KELLN BYJAC Q60 JAXSN DORRN CAVLR6 |
| Aircraft | B738/M-SDE2E3FGHIRWXY/LB1 |
Departure
| Time | 2026-05-05 05:18 |
|---|---|
| Airport | Hartsfield Jackson Atlanta International Airport (KATL) |
Arrival
| Time | 2026-05-05 06:43 |
|---|---|
| Airport | Washington Dulles International Airport (KIAD) |
| Time | Latitude | Longitude | Altitude | Speed | Heading |
|---|---|---|---|---|---|
| 2026-05-05 05:04 | 33.64289 | -84.42995 | 1030 ft | 0 kts | 89° |
| 2026-05-05 05:07 | 33.64289 | -84.43010 | 1021 ft | 2 kts | 88° |
| 2026-05-05 05:07 | 33.64289 | -84.43029 | 1020 ft | 2 kts | 88° |
| 2026-05-05 05:07 | 33.64288 | -84.43049 | 1020 ft | 2 kts | 98° |
| 2026-05-05 05:08 | 33.64294 | -84.43067 | 1020 ft | 2 kts | 161° |
| 2026-05-05 05:08 | 33.64302 | -84.43069 | 1021 ft | 1 kts | 179° |
| 2026-05-05 05:09 | 33.64300 | -84.43069 | 1021 ft | 2 kts | 179° |
| 2026-05-05 05:09 | 33.64248 | -84.43067 | 1019 ft | 12 kts | 178° |
| 2026-05-05 05:10 | 33.64153 | -84.43063 | 1016 ft | 14 kts | 178° |
| 2026-05-05 05:10 | 33.64055 | -84.43062 | 1013 ft | 14 kts | 180° |
| 2026-05-05 05:10 | 33.63952 | -84.43063 | 1010 ft | 15 kts | 180° |
| 2026-05-05 05:10 | 33.63846 | -84.43063 | 1007 ft | 15 kts | 179° |
| 2026-05-05 05:11 | 33.63745 | -84.43064 | 1006 ft | 14 kts | 182° |
| 2026-05-05 05:11 | 33.63669 | -84.43009 | 1006 ft | 14 kts | 105° |
| 2026-05-05 05:11 | 33.63664 | -84.42898 | 1005 ft | 13 kts | 90° |
| 2026-05-05 05:11 | 33.63663 | -84.42790 | 1006 ft | 13 kts | 95° |
| 2026-05-05 05:12 | 33.63656 | -84.42685 | 1008 ft | 12 kts | 93° |
| 2026-05-05 05:12 | 33.63655 | -84.42571 | 1008 ft | 17 kts | 89° |
| 2026-05-05 05:12 | 33.63656 | -84.42379 | 1004 ft | 28 kts | 91° |
| 2026-05-05 05:12 | 33.63655 | -84.42129 | 1004 ft | 30 kts | 89° |
| 2026-05-05 05:13 | 33.63654 | -84.41871 | 995 ft | 31 kts | 91° |
| 2026-05-05 05:13 | 33.63655 | -84.41617 | 992 ft | 23 kts | 89° |
| 2026-05-05 05:13 | 33.63656 | -84.41483 | 992 ft | 15 kts | 90° |
| 2026-05-05 05:13 | 33.63656 | -84.41361 | 986 ft | 14 kts | 91° |
| 2026-05-05 05:14 | 33.63654 | -84.41243 | 987 ft | 14 kts | 91° |
| 2026-05-05 05:14 | 33.63653 | -84.41130 | 988 ft | 13 kts | 89° |
| 2026-05-05 05:14 | 33.63656 | -84.41022 | 987 ft | 13 kts | 88° |
| 2026-05-05 05:14 | 33.63659 | -84.40916 | 990 ft | 12 kts | 89° |
| 2026-05-05 05:15 | 33.63655 | -84.40814 | 987 ft | 12 kts | 93° |
| 2026-05-05 05:15 | 33.63604 | -84.40745 | 988 ft | 12 kts | 171° |
| 2026-05-05 05:15 | 33.63575 | -84.40744 | 987 ft | 1 kts | 179° |
| 2026-05-05 05:15 | 33.63568 | -84.40744 | 987 ft | 2 kts | 179° |
| 2026-05-05 05:16 | 33.63556 | -84.40743 | 989 ft | 0 kts | 179° |
| 2026-05-05 05:16 | 33.63548 | -84.40743 | 988 ft | 2 kts | 179° |
| 2026-05-05 05:16 | 33.63529 | -84.40744 | 988 ft | 3 kts | 183° |
| 2026-05-05 05:16 | 33.63504 | -84.40751 | 986 ft | 4 kts | 200° |
| 2026-05-05 05:17 | 33.63481 | -84.40770 | 988 ft | 4 kts | 236° |
| 2026-05-05 05:17 | 33.63471 | -84.40802 | 988 ft | 4 kts | 250° |
| 2026-05-05 05:17 | 33.63469 | -84.40836 | 987 ft | 4 kts | 271° |
| 2026-05-05 05:17 | 33.63471 | -84.40974 | 988 ft | 51 kts | 271° |
| 2026-05-05 05:18 | 33.63471 | -84.41756 | 994 ft | 133 kts | 270° |
| 2026-05-05 05:18 | 33.63453 | -84.43124 | 1181 ft | 186 kts | 269° |
| 2026-05-05 05:18 | 33.63512 | -84.44692 | 2172 ft | 187 kts | 272° |
| 2026-05-05 05:18 | 33.63489 | -84.46165 | 3564 ft | 165 kts | 265° |
| 2026-05-05 05:19 | 33.63274 | -84.47564 | 4310 ft | 181 kts | 245° |
| 2026-05-05 05:19 | 33.62663 | -84.49017 | 4648 ft | 209 kts | 244° |
| 2026-05-05 05:19 | 33.61988 | -84.50675 | 4927 ft | 231 kts | 244° |
| 2026-05-05 05:19 | 33.61266 | -84.52452 | 5437 ft | 241 kts | 244° |
| 2026-05-05 05:20 | 33.60526 | -84.54271 | 6055 ft | 245 kts | 244° |
| 2026-05-05 05:20 | 33.59722 | -84.56100 | 6688 ft | 251 kts | 235° |
| 2026-05-05 05:20 | 33.58391 | -84.57576 | 7040 ft | 272 kts | 212° |
| 2026-05-05 05:20 | 33.56624 | -84.58422 | 7687 ft | 284 kts | 190° |
| 2026-05-05 05:21 | 33.54641 | -84.58526 | 8637 ft | 286 kts | 181° |
| 2026-05-05 05:21 | 33.52629 | -84.58504 | 9507 ft | 292 kts | 180° |
| 2026-05-05 05:21 | 33.50577 | -84.58481 | 10312 ft | 298 kts | 180° |
| 2026-05-05 05:21 | 33.48530 | -84.58056 | 11110 ft | 303 kts | 157° |
| 2026-05-05 05:22 | 33.46813 | -84.56605 | 11938 ft | 307 kts | 131° |
| 2026-05-05 05:22 | 33.45747 | -84.54326 | 12275 ft | 329 kts | 103° |
| 2026-05-05 05:22 | 33.45536 | -84.51515 | 12499 ft | 351 kts | 89° |
| 2026-05-05 05:22 | 33.45560 | -84.48504 | 12739 ft | 372 kts | 88° |
| 2026-05-05 05:23 | 33.45607 | -84.45371 | 13373 ft | 380 kts | 88° |
| 2026-05-05 05:23 | 33.45627 | -84.42188 | 14105 ft | 384 kts | 89° |
| 2026-05-05 05:23 | 33.45620 | -84.38968 | 14792 ft | 388 kts | 89° |
| 2026-05-05 05:23 | 33.45607 | -84.35720 | 15458 ft | 393 kts | 88° |
| 2026-05-05 05:24 | 33.46068 | -84.32499 | 16075 ft | 395 kts | 68° |
| 2026-05-05 05:24 | 33.47277 | -84.29542 | 16764 ft | 397 kts | 60° |
| 2026-05-05 05:24 | 33.48610 | -84.26609 | 17402 ft | 402 kts | 59° |
| 2026-05-05 05:24 | 33.49967 | -84.23662 | 18016 ft | 407 kts | 59° |
| 2026-05-05 05:25 | 33.51336 | -84.20675 | 18617 ft | 411 kts | 59° |
| 2026-05-05 05:25 | 33.52713 | -84.17647 | 19157 ft | 415 kts | 59° |
| 2026-05-05 05:25 | 33.54091 | -84.14589 | 19692 ft | 419 kts | 59° |
| 2026-05-05 05:25 | 33.55478 | -84.11493 | 20202 ft | 424 kts | 59° |
| 2026-05-05 05:26 | 33.56874 | -84.08365 | 20727 ft | 428 kts | 59° |
| 2026-05-05 05:26 | 33.58280 | -84.05206 | 21238 ft | 432 kts | 59° |
| 2026-05-05 05:26 | 33.59686 | -84.02043 | 21733 ft | 436 kts | 59° |
| 2026-05-05 05:26 | 33.61118 | -83.98818 | 22228 ft | 440 kts | 59° |
| 2026-05-05 05:27 | 33.62562 | -83.95565 | 22709 ft | 444 kts | 59° |
| 2026-05-05 05:27 | 33.64021 | -83.92275 | 23175 ft | 448 kts | 59° |
| 2026-05-05 05:27 | 33.66972 | -83.85610 | 24042 ft | 455 kts | 59° |
| 2026-05-05 05:28 | 33.68459 | -83.82248 | 24460 ft | 458 kts | 59° |
| 2026-05-05 05:28 | 33.69955 | -83.78859 | 24883 ft | 460 kts | 59° |
| 2026-05-05 05:28 | 33.71457 | -83.75456 | 25289 ft | 462 kts | 59° |
| 2026-05-05 05:28 | 33.72968 | -83.72029 | 25685 ft | 465 kts | 59° |
| 2026-05-05 05:29 | 33.74486 | -83.68584 | 26067 ft | 468 kts | 59° |
| 2026-05-05 05:29 | 33.76013 | -83.65120 | 26438 ft | 470 kts | 58° |
| 2026-05-05 05:29 | 33.77635 | -83.61760 | 26811 ft | 471 kts | 54° |
| 2026-05-05 05:29 | 33.79398 | -83.58438 | 27174 ft | 472 kts | 53° |
| 2026-05-05 05:30 | 33.81218 | -83.55134 | 27535 ft | 474 kts | 52° |
| 2026-05-05 05:30 | 33.83051 | -83.51823 | 27885 ft | 476 kts | 52° |
| 2026-05-05 05:30 | 33.84885 | -83.48484 | 28221 ft | 479 kts | 53° |
| 2026-05-05 05:30 | 33.86714 | -83.45115 | 28540 ft | 481 kts | 53° |
| 2026-05-05 05:31 | 33.88540 | -83.41719 | 28858 ft | 484 kts | 53° |
| 2026-05-05 05:31 | 33.90340 | -83.38351 | 29168 ft | 486 kts | 53° |
| 2026-05-05 05:31 | 33.92168 | -83.34918 | 29474 ft | 488 kts | 53° |
| 2026-05-05 05:31 | 33.94005 | -83.31462 | 29794 ft | 490 kts | 53° |
| 2026-05-05 05:32 | 33.95839 | -83.28008 | 30231 ft | 488 kts | 53° |
| 2026-05-05 05:32 | 33.97663 | -83.24571 | 30665 ft | 485 kts | 53° |
| 2026-05-05 05:32 | 33.99480 | -83.21147 | 31028 ft | 485 kts | 53° |
| 2026-05-05 05:32 | 34.01298 | -83.17719 | 31343 ft | 485 kts | 53° |
| 2026-05-05 05:33 | 34.03120 | -83.14283 | 31677 ft | 485 kts | 52° |
| 2026-05-05 05:33 | 34.04930 | -83.10864 | 32034 ft | 484 kts | 52° |
| 2026-05-05 05:33 | 34.06737 | -83.07448 | 32409 ft | 483 kts | 52° |
| 2026-05-05 05:33 | 34.08542 | -83.04033 | 32749 ft | 482 kts | 52° |
| 2026-05-05 05:34 | 34.10342 | -83.00625 | 33089 ft | 482 kts | 52° |
| 2026-05-05 05:34 | 34.12118 | -82.97258 | 33422 ft | 481 kts | 52° |
| 2026-05-05 05:34 | 34.13930 | -82.93815 | 33792 ft | 480 kts | 52° |
| 2026-05-05 05:34 | 34.15688 | -82.90454 | 34128 ft | 479 kts | 52° |
| 2026-05-05 05:35 | 34.17462 | -82.87056 | 34384 ft | 479 kts | 52° |
| 2026-05-05 05:35 | 34.19238 | -82.83650 | 34588 ft | 480 kts | 52° |
| 2026-05-05 05:35 | 34.21019 | -82.80233 | 34806 ft | 481 kts | 52° |
| 2026-05-05 05:35 | 34.22800 | -82.76811 | 35060 ft | 481 kts | 52° |
| 2026-05-05 05:36 | 34.24584 | -82.73381 | 35302 ft | 481 kts | 52° |
| 2026-05-05 05:36 | 34.26360 | -82.69964 | 35522 ft | 481 kts | 52° |
| 2026-05-05 05:36 | 34.28145 | -82.66527 | 35740 ft | 482 kts | 52° |
| 2026-05-05 05:36 | 34.29928 | -82.63092 | 35970 ft | 482 kts | 52° |
| 2026-05-05 05:37 | 34.31707 | -82.59660 | 36193 ft | 482 kts | 52° |
| 2026-05-05 05:37 | 34.33494 | -82.56209 | 36409 ft | 483 kts | 52° |
| 2026-05-05 05:37 | 34.35276 | -82.52763 | 36642 ft | 483 kts | 52° |
| 2026-05-05 05:37 | 34.37055 | -82.49320 | 36856 ft | 483 kts | 52° |
| 2026-05-05 05:38 | 34.38840 | -82.45863 | 37035 ft | 484 kts | 52° |
| 2026-05-05 05:38 | 34.40610 | -82.42433 | 37055 ft | 487 kts | 52° |
| 2026-05-05 05:38 | 34.44187 | -82.35486 | 37068 ft | 484 kts | 52° |
| 2026-05-05 05:39 | 34.47541 | -82.28408 | 37072 ft | 484 kts | 57° |
| 2026-05-05 05:39 | 34.50719 | -82.21230 | 37065 ft | 482 kts | 56° |
| 2026-05-05 05:40 | 34.54264 | -82.14405 | 37081 ft | 471 kts | 44° |
| 2026-05-05 05:40 | 34.58635 | -82.08455 | 37087 ft | 474 kts | 41° |
| 2026-05-05 05:41 | 34.63118 | -82.02555 | 37077 ft | 480 kts | 42° |
| 2026-05-05 05:41 | 34.67601 | -81.96502 | 37070 ft | 483 kts | 43° |
| 2026-05-05 05:42 | 34.72055 | -81.90374 | 37057 ft | 484 kts | 43° |
| 2026-05-05 05:42 | 34.76496 | -81.84223 | 37065 ft | 483 kts | 43° |
| 2026-05-05 05:43 | 34.80929 | -81.78077 | 37064 ft | 483 kts | 43° |
| 2026-05-05 05:43 | 34.85363 | -81.71946 | 37067 ft | 481 kts | 43° |
| 2026-05-05 05:44 | 34.89789 | -81.65890 | 37042 ft | 482 kts | 43° |
| 2026-05-05 05:44 | 34.94188 | -81.59725 | 37046 ft | 481 kts | 44° |
| 2026-05-05 05:45 | 34.98569 | -81.53564 | 37053 ft | 480 kts | 44° |
| 2026-05-05 05:45 | 35.02954 | -81.47419 | 37059 ft | 479 kts | 44° |
| 2026-05-05 05:46 | 35.07299 | -81.41339 | 37056 ft | 479 kts | 44° |
| 2026-05-05 05:46 | 35.11650 | -81.35242 | 37061 ft | 479 kts | 44° |
| 2026-05-05 05:47 | 35.16053 | -81.29061 | 37063 ft | 479 kts | 44° |
| 2026-05-05 05:47 | 35.20426 | -81.22911 | 37065 ft | 479 kts | 44° |
| 2026-05-05 05:48 | 35.24795 | -81.16753 | 37066 ft | 479 kts | 44° |
| 2026-05-05 05:48 | 35.29140 | -81.10620 | 37069 ft | 479 kts | 44° |
| 2026-05-05 05:49 | 35.33514 | -81.04433 | 37064 ft | 480 kts | 44° |
| 2026-05-05 05:49 | 35.37882 | -80.98244 | 37066 ft | 481 kts | 44° |
| 2026-05-05 05:50 | 35.41526 | -80.93074 | 37075 ft | 481 kts | 45° |
| 2026-05-05 05:50 | 35.45899 | -80.86857 | 37080 ft | 481 kts | 45° |
| 2026-05-05 05:51 | 35.50274 | -80.80627 | 37079 ft | 482 kts | 45° |
| 2026-05-05 05:51 | 35.54630 | -80.74411 | 37073 ft | 482 kts | 45° |
| 2026-05-05 05:52 | 35.58997 | -80.68169 | 37049 ft | 482 kts | 45° |
| 2026-05-05 05:52 | 35.63373 | -80.61904 | 37051 ft | 482 kts | 45° |
| 2026-05-05 05:53 | 35.67739 | -80.55639 | 37041 ft | 482 kts | 45° |
| 2026-05-05 05:53 | 35.72097 | -80.49376 | 37047 ft | 482 kts | 45° |
| 2026-05-05 05:54 | 35.76408 | -80.43193 | 37020 ft | 472 kts | 45° |
| 2026-05-05 05:54 | 35.80626 | -80.37098 | 36996 ft | 461 kts | 45° |
| 2026-05-05 05:55 | 35.84742 | -80.31186 | 37034 ft | 449 kts | 45° |
| 2026-05-05 05:55 | 35.88791 | -80.25292 | 37044 ft | 453 kts | 45° |
| 2026-05-05 05:56 | 35.92889 | -80.19331 | 37053 ft | 462 kts | 46° |
| 2026-05-05 05:56 | 35.96984 | -80.13097 | 37030 ft | 475 kts | 52° |
| 2026-05-05 05:57 | 36.00581 | -80.06142 | 37046 ft | 484 kts | 55° |
| 2026-05-05 05:57 | 36.04149 | -79.99071 | 37033 ft | 486 kts | 54° |
| 2026-05-05 05:58 | 36.07733 | -79.92145 | 37040 ft | 486 kts | 54° |
| 2026-05-05 05:58 | 36.11439 | -79.85233 | 37027 ft | 485 kts | 51° |
| 2026-05-05 05:59 | 36.15352 | -79.78447 | 37024 ft | 483 kts | 51° |
| 2026-05-05 05:59 | 36.19258 | -79.71688 | 37016 ft | 482 kts | 51° |
| 2026-05-05 06:00 | 36.23125 | -79.64909 | 37024 ft | 481 kts | 51° |
| 2026-05-05 06:00 | 36.26963 | -79.58129 | 37018 ft | 480 kts | 52° |
| 2026-05-05 06:01 | 36.30767 | -79.51391 | 37017 ft | 479 kts | 52° |
| 2026-05-05 06:01 | 36.34580 | -79.44629 | 37011 ft | 478 kts | 52° |
| 2026-05-05 06:02 | 36.38389 | -79.37861 | 37011 ft | 477 kts | 52° |
| 2026-05-05 06:02 | 36.42175 | -79.31121 | 37015 ft | 477 kts | 52° |
| 2026-05-05 06:03 | 36.45963 | -79.24364 | 37005 ft | 477 kts | 52° |
| 2026-05-05 06:03 | 36.49751 | -79.17594 | 37019 ft | 477 kts | 52° |
| 2026-05-05 06:04 | 36.53541 | -79.10805 | 37029 ft | 478 kts | 52° |
| 2026-05-05 06:04 | 36.57334 | -79.04000 | 37016 ft | 479 kts | 52° |
| 2026-05-05 06:05 | 36.61119 | -78.97172 | 37007 ft | 480 kts | 52° |
| 2026-05-05 06:05 | 36.64867 | -78.90356 | 36995 ft | 481 kts | 52° |
| 2026-05-05 06:06 | 36.68650 | -78.83469 | 37008 ft | 481 kts | 52° |
| 2026-05-05 06:06 | 36.72793 | -78.76985 | 37009 ft | 475 kts | 38° |
| 2026-05-05 06:07 | 36.77785 | -78.71613 | 37019 ft | 474 kts | 36° |
| 2026-05-05 06:07 | 36.82828 | -78.66303 | 37021 ft | 475 kts | 36° |
| 2026-05-05 06:08 | 36.87851 | -78.60931 | 37026 ft | 475 kts | 37° |
| 2026-05-05 06:08 | 36.92848 | -78.55525 | 37023 ft | 475 kts | 37° |
| 2026-05-05 06:09 | 36.97843 | -78.50098 | 37017 ft | 475 kts | 37° |
| 2026-05-05 06:09 | 37.02806 | -78.44698 | 37007 ft | 475 kts | 37° |
| 2026-05-05 06:10 | 37.07792 | -78.39267 | 36995 ft | 475 kts | 37° |
| 2026-05-05 06:10 | 37.12814 | -78.33789 | 36378 ft | 481 kts | 37° |
| 2026-05-05 06:11 | 37.15332 | -78.31037 | 35768 ft | 478 kts | 37° |
| 2026-05-05 06:11 | 37.17838 | -78.28295 | 35082 ft | 479 kts | 37° |
| 2026-05-05 06:11 | 37.20350 | -78.25545 | 34397 ft | 480 kts | 37° |
| 2026-05-05 06:11 | 37.22868 | -78.22786 | 33635 ft | 481 kts | 37° |
| 2026-05-05 06:12 | 37.25360 | -78.20054 | 32837 ft | 482 kts | 37° |
| 2026-05-05 06:12 | 37.27885 | -78.17283 | 32060 ft | 482 kts | 37° |
| 2026-05-05 06:12 | 37.30416 | -78.14501 | 31281 ft | 483 kts | 38° |
| 2026-05-05 06:12 | 37.32949 | -78.11714 | 30477 ft | 484 kts | 38° |
| 2026-05-05 06:13 | 37.35485 | -78.08923 | 29575 ft | 485 kts | 38° |
| 2026-05-05 06:13 | 37.38027 | -78.06122 | 28653 ft | 485 kts | 38° |
| 2026-05-05 06:13 | 37.40545 | -78.03343 | 28045 ft | 478 kts | 38° |
| 2026-05-05 06:13 | 37.43006 | -78.00623 | 27344 ft | 474 kts | 38° |
| 2026-05-05 06:14 | 37.45461 | -77.97910 | 26776 ft | 467 kts | 38° |
| 2026-05-05 06:14 | 37.47897 | -77.95217 | 26152 ft | 463 kts | 38° |
| 2026-05-05 06:14 | 37.50307 | -77.92550 | 25535 ft | 459 kts | 38° |
| 2026-05-05 06:14 | 37.52763 | -77.90008 | 24880 ft | 454 kts | 32° |
| 2026-05-05 06:15 | 37.55422 | -77.87943 | 24252 ft | 446 kts | 22° |
| 2026-05-05 06:15 | 37.58249 | -77.86368 | 23645 ft | 442 kts | 19° |
| 2026-05-05 06:15 | 37.61074 | -77.84856 | 22903 ft | 440 kts | 19° |
| 2026-05-05 06:15 | 37.63868 | -77.83311 | 22245 ft | 437 kts | 20° |
| 2026-05-05 06:16 | 37.66631 | -77.81750 | 21617 ft | 433 kts | 20° |
| 2026-05-05 06:16 | 37.69339 | -77.80236 | 21022 ft | 430 kts | 20° |
| 2026-05-05 06:16 | 37.72074 | -77.78721 | 20414 ft | 428 kts | 20° |
| 2026-05-05 06:16 | 37.74750 | -77.77241 | 19835 ft | 426 kts | 20° |
| 2026-05-05 06:17 | 37.77459 | -77.75740 | 19249 ft | 424 kts | 20° |
| 2026-05-05 06:17 | 37.80155 | -77.74245 | 18663 ft | 421 kts | 20° |
| 2026-05-05 06:17 | 37.82831 | -77.72757 | 18016 ft | 419 kts | 20° |
| 2026-05-05 06:17 | 37.85495 | -77.71275 | 17386 ft | 416 kts | 20° |
| 2026-05-05 06:18 | 37.88119 | -77.69812 | 16848 ft | 409 kts | 20° |
| 2026-05-05 06:18 | 37.90710 | -77.68366 | 16273 ft | 404 kts | 20° |
| 2026-05-05 06:18 | 37.93271 | -77.66936 | 15712 ft | 400 kts | 20° |
| 2026-05-05 06:18 | 37.95768 | -77.65542 | 15172 ft | 395 kts | 20° |
| 2026-05-05 06:19 | 37.98275 | -77.64141 | 14621 ft | 391 kts | 20° |
| 2026-05-05 06:19 | 38.00754 | -77.62754 | 14082 ft | 387 kts | 20° |
| 2026-05-05 06:19 | 38.03209 | -77.61380 | 13512 ft | 384 kts | 20° |
| 2026-05-05 06:19 | 38.05640 | -77.60018 | 12941 ft | 380 kts | 20° |
| 2026-05-05 06:20 | 38.08003 | -77.58580 | 12483 ft | 374 kts | 23° |
| 2026-05-05 06:20 | 38.10311 | -77.57082 | 12043 ft | 368 kts | 24° |
| 2026-05-05 06:20 | 38.12576 | -77.55613 | 11605 ft | 363 kts | 23° |
| 2026-05-05 06:20 | 38.14812 | -77.54179 | 11193 ft | 357 kts | 23° |
| 2026-05-05 06:21 | 38.17014 | -77.52774 | 10866 ft | 350 kts | 22° |
| 2026-05-05 06:21 | 38.19138 | -77.51416 | 10591 ft | 342 kts | 22° |
| 2026-05-05 06:21 | 38.21235 | -77.50075 | 10347 ft | 334 kts | 22° |
| 2026-05-05 06:21 | 38.23292 | -77.48759 | 10096 ft | 327 kts | 22° |
| 2026-05-05 06:22 | 38.25354 | -77.47681 | 9986 ft | 311 kts | 13° |
| 2026-05-05 06:22 | 38.27379 | -77.46942 | 9967 ft | 294 kts | 9° |
| 2026-05-05 06:22 | 38.29314 | -77.46309 | 9576 ft | 288 kts | 9° |
| 2026-05-05 06:22 | 38.31128 | -77.45719 | 9240 ft | 283 kts | 9° |
| 2026-05-05 06:23 | 38.33004 | -77.45095 | 8968 ft | 276 kts | 10° |
| 2026-05-05 06:23 | 38.34853 | -77.44467 | 8751 ft | 274 kts | 10° |
| 2026-05-05 06:23 | 38.36698 | -77.43831 | 8536 ft | 277 kts | 10° |
| 2026-05-05 06:23 | 38.38572 | -77.43180 | 8325 ft | 281 kts | 11° |
| 2026-05-05 06:24 | 38.40462 | -77.42518 | 8099 ft | 282 kts | 11° |
| 2026-05-05 06:24 | 38.42347 | -77.41852 | 7888 ft | 281 kts | 11° |
| 2026-05-05 06:24 | 38.44217 | -77.41191 | 7679 ft | 284 kts | 11° |
| 2026-05-05 06:24 | 38.46135 | -77.40513 | 7463 ft | 288 kts | 11° |
| 2026-05-05 06:25 | 38.48065 | -77.39828 | 7234 ft | 286 kts | 11° |
| 2026-05-05 06:25 | 38.49968 | -77.39152 | 7020 ft | 282 kts | 10° |
| 2026-05-05 06:25 | 38.51859 | -77.38531 | 6801 ft | 278 kts | 9° |
| 2026-05-05 06:25 | 38.53731 | -77.37942 | 6587 ft | 277 kts | 9° |
| 2026-05-05 06:26 | 38.55600 | -77.37354 | 6383 ft | 277 kts | 9° |
| 2026-05-05 06:26 | 38.57471 | -77.36761 | 6157 ft | 277 kts | 9° |
| 2026-05-05 06:26 | 38.59354 | -77.36261 | 5932 ft | 274 kts | 0° |
| 2026-05-05 06:26 | 38.61242 | -77.36134 | 5744 ft | 271 kts | 355° |
| 2026-05-05 06:27 | 38.63124 | -77.36110 | 5542 ft | 271 kts | 354° |
| 2026-05-05 06:27 | 38.66888 | -77.36054 | 5136 ft | 271 kts | 355° |
| 2026-05-05 06:27 | 38.68776 | -77.36006 | 4938 ft | 272 kts | 355° |
| 2026-05-05 06:28 | 38.70671 | -77.35948 | 4749 ft | 272 kts | 356° |
| 2026-05-05 06:28 | 38.72573 | -77.35883 | 4546 ft | 274 kts | 356° |
| 2026-05-05 06:28 | 38.74487 | -77.35814 | 4341 ft | 276 kts | 356° |
| 2026-05-05 06:28 | 38.76385 | -77.35745 | 4146 ft | 277 kts | 356° |
| 2026-05-05 06:29 | 38.78311 | -77.35675 | 4045 ft | 275 kts | 356° |
| 2026-05-05 06:29 | 38.80221 | -77.35605 | 4022 ft | 274 kts | 356° |
| 2026-05-05 06:29 | 38.82121 | -77.35535 | 3998 ft | 273 kts | 355° |
| 2026-05-05 06:29 | 38.84014 | -77.35467 | 4000 ft | 272 kts | 356° |
| 2026-05-05 06:30 | 38.85918 | -77.35399 | 3999 ft | 274 kts | 356° |
| 2026-05-05 06:30 | 38.87833 | -77.35330 | 4007 ft | 276 kts | 355° |
| 2026-05-05 06:30 | 38.89756 | -77.35261 | 4002 ft | 276 kts | 356° |
| 2026-05-05 06:30 | 38.91679 | -77.35191 | 3996 ft | 277 kts | 356° |
| 2026-05-05 06:31 | 38.93607 | -77.35121 | 3995 ft | 276 kts | 356° |
| 2026-05-05 06:31 | 38.95529 | -77.35051 | 3998 ft | 276 kts | 356° |
| 2026-05-05 06:31 | 38.97447 | -77.34981 | 3993 ft | 274 kts | 356° |
| 2026-05-05 06:31 | 38.99353 | -77.34911 | 4003 ft | 274 kts | 356° |
| 2026-05-05 06:32 | 39.01238 | -77.34842 | 4002 ft | 274 kts | 356° |
| 2026-05-05 06:32 | 39.03141 | -77.34773 | 4000 ft | 273 kts | 356° |
| 2026-05-05 06:32 | 39.05043 | -77.34706 | 3997 ft | 273 kts | 356° |
| 2026-05-05 06:32 | 39.06942 | -77.34640 | 4005 ft | 272 kts | 356° |
| 2026-05-05 06:33 | 39.08832 | -77.34574 | 4015 ft | 272 kts | 356° |
| 2026-05-05 06:33 | 39.10719 | -77.34509 | 4009 ft | 271 kts | 356° |
| 2026-05-05 06:33 | 39.12606 | -77.34444 | 4024 ft | 271 kts | 355° |
| 2026-05-05 06:33 | 39.14487 | -77.34378 | 4017 ft | 271 kts | 356° |
| 2026-05-05 06:34 | 39.16375 | -77.34313 | 4021 ft | 271 kts | 355° |
| 2026-05-05 06:34 | 39.18257 | -77.34247 | 4026 ft | 271 kts | 356° |
| 2026-05-05 06:34 | 39.20151 | -77.34181 | 4017 ft | 272 kts | 355° |
| 2026-05-05 06:34 | 39.22046 | -77.34115 | 4018 ft | 272 kts | 355° |
| 2026-05-05 06:35 | 39.23933 | -77.34049 | 4027 ft | 271 kts | 355° |
| 2026-05-05 06:35 | 39.25804 | -77.34012 | 4007 ft | 270 kts | 349° |
| 2026-05-05 06:35 | 39.27509 | -77.34743 | 4018 ft | 253 kts | 319° |
| 2026-05-05 06:35 | 39.28666 | -77.36350 | 4022 ft | 240 kts | 293° |
| 2026-05-05 06:36 | 39.29167 | -77.38345 | 4018 ft | 232 kts | 272° |
| 2026-05-05 06:36 | 39.29015 | -77.40389 | 4012 ft | 228 kts | 250° |
| 2026-05-05 06:36 | 39.28248 | -77.42166 | 3995 ft | 229 kts | 230° |
| 2026-05-05 06:36 | 39.26981 | -77.43419 | 4012 ft | 232 kts | 211° |
| 2026-05-05 06:37 | 39.25418 | -77.44018 | 3996 ft | 240 kts | 189° |
| 2026-05-05 06:37 | 39.23731 | -77.43986 | 4011 ft | 243 kts | 182° |
| 2026-05-05 06:37 | 39.22043 | -77.43820 | 4019 ft | 244 kts | 181° |
| 2026-05-05 06:37 | 39.20348 | -77.43649 | 4017 ft | 244 kts | 182° |
| 2026-05-05 06:38 | 39.18652 | -77.43486 | 4014 ft | 244 kts | 181° |
| 2026-05-05 06:38 | 39.16962 | -77.43326 | 4011 ft | 242 kts | 183° |
| 2026-05-05 06:38 | 39.15318 | -77.43283 | 3989 ft | 235 kts | 186° |
| 2026-05-05 06:38 | 39.13710 | -77.43300 | 3782 ft | 225 kts | 186° |
| 2026-05-05 06:39 | 39.12188 | -77.43327 | 3516 ft | 214 kts | 187° |
| 2026-05-05 06:39 | 39.10734 | -77.43352 | 3253 ft | 204 kts | 187° |
| 2026-05-05 06:39 | 39.09346 | -77.43374 | 3005 ft | 193 kts | 187° |
| 2026-05-05 06:39 | 39.08047 | -77.43393 | 2753 ft | 181 kts | 187° |
| 2026-05-05 06:40 | 39.06832 | -77.43413 | 2522 ft | 168 kts | 187° |
| 2026-05-05 06:40 | 39.05700 | -77.43432 | 2310 ft | 157 kts | 188° |
| 2026-05-05 06:40 | 39.04652 | -77.43448 | 2135 ft | 144 kts | 188° |
| 2026-05-05 06:40 | 39.03688 | -77.43461 | 1908 ft | 133 kts | 187° |
| 2026-05-05 06:41 | 39.02780 | -77.43478 | 1739 ft | 130 kts | 187° |
| 2026-05-05 06:41 | 39.01870 | -77.43493 | 1559 ft | 130 kts | 187° |
| 2026-05-05 06:41 | 39.01271 | -77.43503 | 1443 ft | 130 kts | 186° |
| 2026-05-05 06:41 | 39.00352 | -77.43504 | 1296 ft | 135 kts | 186° |
| 2026-05-05 06:42 | 38.99399 | -77.43539 | 1079 ft | 138 kts | 184° |
| 2026-05-05 06:42 | 38.98434 | -77.43546 | 908 ft | 139 kts | 181° |
| 2026-05-05 06:42 | 38.97142 | -77.43568 | 644 ft | 140 kts | 181° |
| 2026-05-05 06:42 | 38.96497 | -77.43576 | 521 ft | 139 kts | 180° |
| 2026-05-05 06:43 | 38.95539 | -77.43593 | 347 ft | 137 kts | 180° |
| 2026-05-05 06:43 | 38.94647 | -77.43607 | 307 ft | 109 kts | 182° |
| 2026-05-05 06:43 | 38.94105 | -77.43621 | 311 ft | 47 kts | 181° |
| 2026-05-05 06:43 | 38.93971 | -77.43622 | 312 ft | 5 kts | 180° |
| 2026-05-05 06:44 | 38.93872 | -77.43622 | 311 ft | 24 kts | 180° |
| 2026-05-05 06:44 | 38.93698 | -77.43623 | 311 ft | 24 kts | 180° |
| 2026-05-05 06:44 | 38.93539 | -77.43651 | 311 ft | 19 kts | 198° |
| 2026-05-05 06:44 | 38.93442 | -77.43705 | 312 ft | 11 kts | 209° |
| 2026-05-05 06:45 | 38.93380 | -77.43750 | 313 ft | 10 kts | 210° |
| 2026-05-05 06:45 | 38.93329 | -77.43809 | 310 ft | 10 kts | 243° |
| 2026-05-05 06:45 | 38.93321 | -77.43887 | 312 ft | 6 kts | 270° |
| 2026-05-05 06:45 | 38.93325 | -77.43944 | 312 ft | 7 kts | 288° |
| 2026-05-05 06:46 | 38.93381 | -77.43991 | 310 ft | 15 kts | 353° |
| 2026-05-05 06:46 | 38.93507 | -77.43990 | 310 ft | 19 kts | 1° |
| 2026-05-05 06:46 | 38.93638 | -77.43988 | 311 ft | 18 kts | 1° |
| 2026-05-05 06:46 | 38.93765 | -77.43984 | 310 ft | 18 kts | 1° |
| 2026-05-05 06:47 | 38.93887 | -77.43984 | 312 ft | 17 kts | 359° |
| 2026-05-05 06:47 | 38.94004 | -77.43985 | 315 ft | 17 kts | 360° |
| 2026-05-05 06:47 | 38.94118 | -77.43982 | 314 ft | 16 kts | 3° |
| 2026-05-05 06:47 | 38.94236 | -77.43976 | 313 ft | 19 kts | 360° |
| 2026-05-05 06:48 | 38.94385 | -77.43978 | 312 ft | 24 kts | 359° |
| 2026-05-05 06:48 | 38.94562 | -77.43976 | 307 ft | 25 kts | 360° |
| 2026-05-05 06:48 | 38.94684 | -77.43977 | 305 ft | 10 kts | 359° |
| 2026-05-05 06:48 | 38.94708 | -77.43979 | 306 ft | 1 kts | 348° |
| 2026-05-05 06:49 | 38.94726 | -77.43997 | 305 ft | 2 kts | 308° |
| 2026-05-05 06:49 | 38.94722 | -77.44044 | 306 ft | 12 kts | 265° |
| 2026-05-05 06:49 | 38.94723 | -77.44182 | 304 ft | 17 kts | 271° |
| 2026-05-05 06:49 | 38.94725 | -77.44334 | 304 ft | 17 kts | 270° |
| 2026-05-05 06:50 | 38.94725 | -77.44480 | 305 ft | 16 kts | 270° |
| 2026-05-05 06:50 | 38.94723 | -77.44621 | 304 ft | 15 kts | 268° |
| 2026-05-05 06:50 | 38.94716 | -77.44755 | 302 ft | 15 kts | 265° |
| 2026-05-05 06:50 | 38.94710 | -77.44883 | 304 ft | 14 kts | 274° |
| 2026-05-05 06:51 | 38.94725 | -77.45011 | 300 ft | 16 kts | 277° |
| 2026-05-05 06:51 | 38.94732 | -77.45169 | 297 ft | 20 kts | 269° |
| 2026-05-05 06:51 | 38.94736 | -77.45351 | 294 ft | 19 kts | 272° |
| 2026-05-05 06:51 | 38.94747 | -77.45444 | 297 ft | 9 kts | 318° |
| 2026-05-05 06:52 | 38.94812 | -77.45437 | 292 ft | 10 kts | 13° |
| 2026-05-05 06:52 | 38.94839 | -77.45430 | 295 ft | 0 kts | 11° |